createdAt,value
2022-09-28T00:01:07.023Z,97037.78
2022-09-28T00:03:33.617Z,97033.53
2022-09-28T00:06:04.787Z,97035.94
2022-09-28T00:08:31.444Z,97022.50
2022-09-28T00:10:58.231Z,97018.81
2022-09-28T00:13:24.657Z,97006.19
2022-09-28T00:16:01.275Z,96982.41
2022-09-28T00:18:28.385Z,96976.88
2022-09-28T00:21:01.831Z,96980.06
2022-09-28T00:23:28.235Z,96970.31
2022-09-28T00:25:54.684Z,96963.19
2022-09-28T00:28:21.033Z,96955.72
2022-09-28T00:30:47.395Z,96958.38
2022-09-28T00:33:13.756Z,96953.09
2022-09-28T00:35:40.181Z,96956.53
2022-09-28T00:38:09.230Z,96956.78
2022-09-28T00:40:35.685Z,96957.78
2022-09-28T00:43:16.423Z,96956.19
2022-09-28T00:45:43.014Z,96964.59
2022-09-28T00:48:09.375Z,96960.59
2022-09-28T00:50:37.406Z,96959.56
2022-09-28T00:53:03.854Z,96959.31
2022-09-28T00:55:34.427Z,96957.72
2022-09-28T00:58:03.132Z,96948.44
2022-09-28T01:00:29.709Z,96959.00
2022-09-28T01:02:56.246Z,96956.38
2022-09-28T01:05:24.255Z,96955.31
2022-09-28T01:07:50.806Z,96952.88
2022-09-28T01:10:18.252Z,96944.97
2022-09-28T01:12:44.722Z,96945.78
2022-09-28T01:15:11.644Z,96949.22
2022-09-28T01:17:48.834Z,96953.94
2022-09-28T01:20:44.460Z,96945.22
2022-09-28T01:23:15.270Z,96940.50
2022-09-28T01:25:55.020Z,96940.81
2022-09-28T01:28:25.652Z,96942.44
2022-09-28T01:31:04.692Z,96941.63
2022-09-28T01:33:43.299Z,96937.63
2022-09-28T01:36:12.482Z,96946.59
2022-09-28T01:38:46.477Z,96941.31
2022-09-28T01:41:13.559Z,96939.00
2022-09-28T01:43:42.707Z,96932.88
2022-09-28T01:46:14.180Z,96926.78
2022-09-28T01:48:50.082Z,96928.09
2022-09-28T01:51:25.042Z,96921.75
2022-09-28T01:53:53.249Z,96917.03
2022-09-28T01:56:25.752Z,96913.59
2022-09-28T01:58:59.726Z,96906.72
2022-09-28T02:01:29.315Z,96904.31
2022-09-28T02:04:12.083Z,96901.66
2022-09-28T02:06:45.880Z,96903.75
2022-09-28T02:09:16.869Z,96906.84
2022-09-28T02:11:50.326Z,96911.84
2022-09-28T02:14:19.615Z,96910.22
2022-09-28T02:16:48.936Z,96910.22
2022-09-28T02:19:26.152Z,96900.13
2022-09-28T02:22:01.864Z,96910.94
2022-09-28T02:24:35.248Z,96900.34
2022-09-28T02:27:07.801Z,96900.59
2022-09-28T02:29:34.371Z,96906.69
2022-09-28T02:32:00.969Z,96904.03
2022-09-28T02:34:28.021Z,96904.28
2022-09-28T02:36:54.503Z,96895.00
2022-09-28T02:39:20.908Z,96898.69
2022-09-28T02:42:11.426Z,96897.31
2022-09-28T02:44:38.115Z,96899.16
2022-09-28T02:47:11.135Z,96909.13
2022-09-28T02:49:48.152Z,96901.00
2022-09-28T02:52:33.449Z,96901.78
2022-09-28T02:55:14.856Z,96897.56
2022-09-28T02:57:41.188Z,96899.16
2022-09-28T03:00:21.688Z,96899.16
2022-09-28T03:03:06.211Z,96892.28
2022-09-28T03:05:41.508Z,96896.50
2022-09-28T03:08:23.652Z,96899.16
2022-09-28T03:11:02.310Z,96901.22
2022-09-28T03:13:30.800Z,96891.16
2022-09-28T03:16:13.930Z,96892.16
2022-09-28T03:18:41.960Z,96895.84
2022-09-28T03:21:09.337Z,96890.22
2022-09-28T03:23:35.737Z,96887.03
2022-09-28T03:26:02.418Z,96885.88
2022-09-28T03:28:29.709Z,96893.22
2022-09-28T03:30:57.910Z,96897.72
2022-09-28T03:33:24.265Z,96896.91
2022-09-28T03:35:50.875Z,96897.16
2022-09-28T03:38:18.583Z,96884.75
2022-09-28T03:40:56.506Z,96891.63
2022-09-28T03:43:23.710Z,96885.31
2022-09-28T03:45:55.433Z,96883.72
2022-09-28T03:48:31.370Z,96889.25
2022-09-28T03:51:00.337Z,96894.97
2022-09-28T03:53:26.945Z,96897.28
2022-09-28T03:55:53.663Z,96890.41
2022-09-28T03:58:20.977Z,96884.34
2022-09-28T04:03:38.244Z,96893.50
2022-09-28T04:06:04.875Z,96889.03
2022-09-28T04:08:31.278Z,96890.88
2022-09-28T04:10:59.126Z,96887.19
2022-09-28T04:13:25.952Z,96891.69
2022-09-28T04:15:56.653Z,96889.03
2022-09-28T04:18:23.663Z,96895.13
2022-09-28T04:21:14.201Z,96893.75
2022-09-28T04:24:10.451Z,96906.38
2022-09-28T04:26:37.298Z,96893.88
2022-09-28T04:29:19.702Z,96889.88
2022-09-28T04:31:55.234Z,96898.50
2022-09-28T04:34:36.478Z,96894.97
2022-09-28T04:37:04.806Z,96904.63
2022-09-28T04:39:31.231Z,96905.31
2022-09-28T04:41:57.685Z,96911.88
2022-09-28T04:44:24.111Z,96910.50
2022-09-28T04:46:56.623Z,96909.13
2022-09-28T04:49:43.279Z,96896.63
2022-09-28T04:52:26.674Z,96907.66
2022-09-28T04:54:53.057Z,96908.91
2022-09-28T04:57:19.471Z,96911.22
2022-09-28T04:59:45.889Z,96908.00
2022-09-28T05:02:15.049Z,96917.97
2022-09-28T05:05:14.104Z,96911.34
2022-09-28T05:08:03.361Z,96921.31
2022-09-28T05:10:29.828Z,96917.28
2022-09-28T05:12:56.251Z,96925.69
2022-09-28T05:15:22.631Z,96927.53
2022-09-28T05:17:49.090Z,96923.03
2022-09-28T05:20:44.545Z,96937.03
2022-09-28T05:23:12.253Z,96929.91
2022-09-28T05:25:40.179Z,96934.16
2022-09-28T05:28:20.262Z,96936.22
2022-09-28T05:31:06.630Z,96940.13
2022-09-28T05:34:08.331Z,96939.66
2022-09-28T05:36:35.668Z,96959.63
2022-09-28T05:39:03.903Z,96948.38
2022-09-28T05:41:30.685Z,96952.16
2022-09-28T05:43:58.098Z,96966.69
2022-09-28T05:46:24.621Z,96961.44
2022-09-28T05:48:52.617Z,96961.22
2022-09-28T05:51:19.339Z,96964.66
2022-09-28T05:53:46.120Z,96968.69
2022-09-28T05:56:13.038Z,96964.19
2022-09-28T05:58:43.356Z,96961.56
2022-09-28T06:01:10.807Z,96964.66
2022-09-28T06:03:37.463Z,96969.34
2022-09-28T06:06:04.296Z,96968.78
2022-09-28T06:08:32.689Z,96972.47
2022-09-28T06:11:18.674Z,96971.66
2022-09-28T06:13:46.265Z,96970.84
2022-09-28T06:16:16.768Z,96972.69
2022-09-28T06:18:43.582Z,96975.31
2022-09-28T06:21:28.410Z,96985.41
2022-09-28T06:23:54.828Z,96982.31
2022-09-28T06:26:21.394Z,96985.88
2022-09-28T06:28:48.399Z,96988.59
2022-09-28T06:31:16.003Z,96992.38
2022-09-28T06:33:48.205Z,96994.34
2022-09-28T06:36:14.970Z,96993.66
2022-09-28T06:38:41.802Z,96992.16
2022-09-28T06:41:08.590Z,96995.94
2022-09-28T06:43:39.634Z,96991.81
2022-09-28T06:46:12.789Z,96990.06
2022-09-28T06:48:39.232Z,96991.19
2022-09-28T06:51:08.321Z,96993.13
2022-09-28T06:53:53.900Z,97003.78
2022-09-28T06:56:37.108Z,97004.72
2022-09-28T06:59:03.921Z,97006.69
2022-09-28T07:01:30.753Z,97011.00
2022-09-28T07:04:11.388Z,97024.34
2022-09-28T07:07:00.441Z,97023.38
2022-09-28T07:09:50.278Z,97030.03
2022-09-28T07:12:36.249Z,97026.69
2022-09-28T07:15:12.213Z,97027.59
2022-09-28T07:17:54.456Z,97036.97
2022-09-28T07:20:25.278Z,97036.94
2022-09-28T07:22:55.616Z,97039.78
2022-09-28T07:25:23.908Z,97046.28
2022-09-28T07:28:07.284Z,97052.03
2022-09-28T07:30:52.174Z,97056.66
2022-09-28T07:33:38.613Z,97068.16
2022-09-28T07:36:30.282Z,97068.91
2022-09-28T07:38:57.886Z,97064.75
2022-09-28T07:41:32.604Z,97071.16
2022-09-28T07:44:07.741Z,97073.03
2022-09-28T07:46:36.974Z,97068.22
2022-09-28T07:49:22.453Z,97066.03
2022-09-28T07:52:08.086Z,97065.41
2022-09-28T07:54:47.070Z,97070.78
2022-09-28T07:57:33.751Z,97077.38
2022-09-28T08:00:21.188Z,97078.09
2022-09-28T08:02:48.411Z,97082.88
2022-09-28T08:05:22.001Z,97090.41
2022-09-28T08:07:48.522Z,97089.03
2022-09-28T08:10:17.018Z,97094.72
2022-09-28T08:13:04.770Z,97091.88
2022-09-28T08:15:52.740Z,97103.66
2022-09-28T08:18:31.535Z,97102.88
2022-09-28T08:21:16.498Z,97111.03
2022-09-28T08:23:43.324Z,97106.25
2022-09-28T08:26:15.192Z,97109.44
2022-09-28T08:28:43.226Z,97113.47
2022-09-28T08:31:29.572Z,97113.78
2022-09-28T08:34:10.237Z,97114.50
2022-09-28T08:37:04.308Z,97110.44
2022-09-28T08:40:02.694Z,97115.22
2022-09-28T08:42:57.777Z,97121.09
2022-09-28T08:45:42.956Z,97121.53
2022-09-28T08:49:01.144Z,97125.53
2022-09-28T08:52:00.546Z,97132.25
2022-09-28T08:54:43.952Z,97138.81
2022-09-28T08:57:22.721Z,97138.81
2022-09-28T08:59:53.579Z,97142.38
2022-09-28T09:02:39.653Z,97148.91
2022-09-28T09:05:19.981Z,97153.75
2022-09-28T09:08:22.205Z,97148.41
2022-09-28T09:10:53.826Z,97148.47
2022-09-28T09:13:28.427Z,97145.00
2022-09-28T09:15:55.135Z,97147.53
2022-09-28T09:18:49.223Z,97151.00
2022-09-28T09:21:41.778Z,97147.91
2022-09-28T09:24:30.420Z,97155.16
2022-09-28T09:27:05.342Z,97152.00
2022-09-28T09:29:32.096Z,97158.94
2022-09-28T09:32:04.062Z,97159.63
2022-09-28T09:34:31.322Z,97169.66
2022-09-28T09:37:21.376Z,97160.06
2022-09-28T09:40:12.563Z,97161.78
2022-09-28T09:43:27.932Z,97156.94
2022-09-28T09:46:19.008Z,97161.53
2022-09-28T09:48:58.988Z,97156.63
2022-09-28T09:51:32.046Z,97163.38
2022-09-28T09:54:21.931Z,97161.41
2022-09-28T09:56:54.767Z,97168.25
2022-09-28T09:59:42.953Z,97162.25
2022-09-28T10:02:24.247Z,97165.22
2022-09-28T10:05:11.664Z,97157.66
2022-09-28T10:07:43.397Z,97167.38
2022-09-28T10:10:22.846Z,97163.59
2022-09-28T10:12:52.993Z,97158.09
2022-09-28T10:15:27.207Z,97165.13
2022-09-28T10:18:13.065Z,97155.63
2022-09-28T10:20:57.867Z,97167.72
2022-09-28T10:23:36.500Z,97161.19
2022-09-28T10:26:10.124Z,97157.50
2022-09-28T10:28:43.076Z,97157.28
2022-09-28T10:31:29.055Z,97163.22
2022-09-28T10:33:57.616Z,97167.03
2022-09-28T10:36:26.198Z,97164.44
2022-09-28T10:38:54.394Z,97162.28
2022-09-28T10:41:32.082Z,97168.66
2022-09-28T10:44:06.935Z,97167.31
2022-09-28T10:47:01.291Z,97168.66
2022-09-28T10:49:37.384Z,97178.03
2022-09-28T10:52:08.561Z,97167.84
2022-09-28T10:54:52.162Z,97168.22
2022-09-28T10:57:33.652Z,97159.22
2022-09-28T11:00:06.885Z,97163.81
2022-09-28T11:02:40.348Z,97169.13
2022-09-28T11:05:21.865Z,97161.94
2022-09-28T11:07:49.284Z,97164.25
2022-09-28T11:10:21.607Z,97155.97
2022-09-28T11:12:49.559Z,97165.28
2022-09-28T11:15:21.276Z,97166.13
2022-09-28T11:17:49.868Z,97150.44
2022-09-28T11:20:27.876Z,97158.16
2022-09-28T11:23:17.544Z,97156.03
2022-09-28T11:25:55.534Z,97153.66
2022-09-28T11:28:24.056Z,97154.22
2022-09-28T11:30:52.594Z,97149.69
2022-09-28T11:33:31.055Z,97152.34
2022-09-28T11:36:29.520Z,97161.41
2022-09-28T11:39:11.329Z,97157.41
2022-09-28T11:41:55.500Z,97160.06
2022-09-28T11:44:48.878Z,97157.41
2022-09-28T11:47:32.084Z,97155.25
2022-09-28T11:50:03.857Z,97146.75
2022-09-28T11:52:50.531Z,97160.84
2022-09-28T11:55:17.099Z,97152.59
2022-09-28T11:57:46.394Z,97154.97
2022-09-28T12:00:15.314Z,97149.66
2022-09-28T12:03:06.350Z,97142.47
2022-09-28T12:05:32.982Z,97155.78
2022-09-28T12:08:09.717Z,97155.78
2022-09-28T12:11:00.633Z,97152.59
2022-09-28T12:13:47.973Z,97156.06
2022-09-28T12:19:13.597Z,97158.72
2022-09-28T12:21:43.862Z,97154.75
2022-09-28T12:24:32.136Z,97156.09
2022-09-28T12:26:58.504Z,97159.56
2022-09-28T12:29:48.522Z,97160.34
2022-09-28T12:32:26.546Z,97160.91
2022-09-28T12:34:53.078Z,97156.63
2022-09-28T12:37:22.467Z,97155.84
2022-09-28T12:40:07.036Z,97162.50
2022-09-28T12:42:46.052Z,97156.66
2022-09-28T12:45:17.594Z,97155.06
2022-09-28T12:48:04.257Z,97154.81
2022-09-28T12:50:39.006Z,97157.22
2022-09-28T12:53:06.545Z,97144.69
2022-09-28T12:55:33.268Z,97148.09
2022-09-28T12:58:06.431Z,97136.56
2022-09-28T13:00:37.663Z,97147.47
2022-09-28T13:03:19.581Z,97139.09
2022-09-28T13:06:05.634Z,97139.78
2022-09-28T13:08:38.012Z,97139.22
2022-09-28T13:11:15.554Z,97136.22
2022-09-28T13:13:48.034Z,97130.56
2022-09-28T13:16:23.637Z,97127.66
2022-09-28T13:18:50.052Z,97133.88
2022-09-28T13:21:39.530Z,97129.19
2022-09-28T13:24:28.204Z,97129.81
2022-09-28T13:26:57.660Z,97121.88
2022-09-28T13:29:24.367Z,97123.22
2022-09-28T13:31:52.711Z,97122.13
2022-09-28T13:34:22.518Z,97127.22
2022-09-28T13:37:07.831Z,97124.81
2022-09-28T13:39:46.232Z,97129.63
2022-09-28T13:42:29.165Z,97120.78
2022-09-28T13:45:14.374Z,97121.88
2022-09-28T13:47:41.373Z,97128.63
2022-09-28T13:50:21.212Z,97123.88
2022-09-28T13:53:23.513Z,97125.22
2022-09-28T13:55:50.284Z,97121.50
2022-09-28T13:58:16.678Z,97111.66
2022-09-28T14:00:46.114Z,97125.25
2022-09-28T14:03:14.968Z,97119.38
2022-09-28T14:05:41.620Z,97121.78
2022-09-28T14:08:23.330Z,97123.59
2022-09-28T14:10:51.725Z,97120.66
2022-09-28T14:13:36.913Z,97126.25
2022-09-28T14:16:20.950Z,97121.97
2022-09-28T14:18:59.366Z,97127.81
2022-09-28T14:21:47.259Z,97121.19
2022-09-28T14:24:30.224Z,97122.28
2022-09-28T14:27:10.155Z,97118.81
2022-09-28T14:29:38.308Z,97131.63
2022-09-28T14:32:07.760Z,97131.09
2022-09-28T14:34:34.289Z,97138.56
2022-09-28T14:37:20.803Z,97129.25
2022-09-28T14:40:06.482Z,97129.22
2022-09-28T14:42:33.048Z,97136.41
2022-09-28T14:45:06.230Z,97131.06
2022-09-28T14:47:52.618Z,97130.84
2022-09-28T14:50:28.117Z,97132.72
2022-09-28T14:52:55.681Z,97138.28
2022-09-28T14:55:31.017Z,97143.63
2022-09-28T14:57:58.547Z,97142.28
2022-09-28T15:00:27.196Z,97138.84
2022-09-28T15:02:55.121Z,97137.22
2022-09-28T15:05:24.223Z,97142.25
2022-09-28T15:07:52.280Z,97148.91
2022-09-28T15:10:28.199Z,97140.63
2022-09-28T15:12:56.035Z,97147.28
2022-09-28T15:15:25.712Z,97150.72
2022-09-28T15:17:57.904Z,97156.56
2022-09-28T15:20:29.853Z,97147.28
2022-09-28T15:22:57.337Z,97145.41
2022-09-28T15:25:27.854Z,97152.31
2022-09-28T15:27:58.370Z,97150.72
2022-09-28T15:30:29.534Z,97157.88
2022-09-28T15:32:56.974Z,97155.47
2022-09-28T15:35:27.611Z,97154.97
2022-09-28T15:37:54.875Z,97159.75
2022-09-28T15:40:33.348Z,97152.28
2022-09-28T15:42:59.802Z,97151.19
2022-09-28T15:45:27.566Z,97163.47
2022-09-28T15:48:15.051Z,97164.25
2022-09-28T15:50:48.716Z,97158.94
2022-09-28T15:53:17.909Z,97157.59
2022-09-28T15:55:44.872Z,97166.63
2022-09-28T15:58:19.168Z,97161.53
2022-09-28T16:00:47.084Z,97164.72
2022-09-28T16:03:16.491Z,97166.56
2022-09-28T16:05:46.588Z,97173.75
2022-09-28T16:08:26.209Z,97175.91
2022-09-28T16:10:53.272Z,97170.81
2022-09-28T16:13:22.279Z,97169.44
2022-09-28T16:15:55.063Z,97167.06
2022-09-28T16:18:23.508Z,97175.59
2022-09-28T16:20:51.867Z,97172.97
2022-09-28T16:23:26.781Z,97178.28
2022-09-28T16:25:53.191Z,97165.78
2022-09-28T16:28:35.089Z,97172.94
2022-09-28T16:31:07.551Z,97173.44
2022-09-28T16:33:45.131Z,97176.31
2022-09-28T16:36:12.997Z,97183.50
2022-09-28T16:38:39.441Z,97181.06
2022-09-28T16:41:06.068Z,97180.75
2022-09-28T16:43:34.944Z,97186.25
2022-09-28T16:46:12.772Z,97185.69
2022-09-28T16:48:57.062Z,97187.50
2022-09-28T16:51:23.491Z,97189.31
2022-09-28T16:54:08.538Z,97192.97
2022-09-28T16:56:36.021Z,97197.97
2022-09-28T16:59:02.497Z,97196.34
2022-09-28T17:01:31.718Z,97206.63
2022-09-28T17:03:58.248Z,97206.03
2022-09-28T17:06:25.301Z,97207.59
2022-09-28T17:08:51.964Z,97215.75
2022-09-28T17:11:24.164Z,97216.78
2022-09-28T17:13:52.052Z,97214.31
2022-09-28T17:16:32.559Z,97215.06
2022-09-28T17:19:18.069Z,97218.47
2022-09-28T17:21:44.678Z,97222.13
2022-09-28T17:24:11.253Z,97216.75
2022-09-28T17:26:38.338Z,97224.41
2022-09-28T17:29:08.686Z,97228.09
2022-09-28T17:31:35.180Z,97227.78
2022-09-28T17:34:01.747Z,97225.88
2022-09-28T17:36:30.362Z,97223.09
2022-09-28T17:38:57.257Z,97226.28
2022-09-28T17:41:23.774Z,97229.41
2022-09-28T17:43:50.199Z,97234.16
2022-09-28T17:46:19.648Z,97231.50
2022-09-28T17:48:47.431Z,97236.25
2022-09-28T17:51:14.066Z,97233.03
2022-09-28T17:53:40.627Z,97238.28
2022-09-28T17:56:07.140Z,97236.38
2022-09-28T17:58:33.843Z,97231.00
2022-09-28T18:01:00.316Z,97234.63
2022-09-28T18:03:27.042Z,97230.63
2022-09-28T18:06:04.380Z,97235.63
2022-09-28T18:08:34.121Z,97239.34
2022-09-28T18:11:01.637Z,97238.50
2022-09-28T18:13:28.240Z,97237.97
2022-09-28T18:15:55.391Z,97237.97
2022-09-28T18:18:22.495Z,97247.44
2022-09-28T18:20:48.889Z,97245.06
2022-09-28T18:23:15.303Z,97244.75
2022-09-28T18:25:43.020Z,97239.91
2022-09-28T18:28:09.908Z,97249.16
2022-09-28T18:30:38.962Z,97251.25
2022-09-28T18:33:05.606Z,97249.66
2022-09-28T18:35:32.422Z,97258.41
2022-09-28T18:37:58.777Z,97253.59
2022-09-28T18:40:25.241Z,97260.16
2022-09-28T18:42:51.666Z,97267.78
2022-09-28T18:45:18.528Z,97269.09
2022-09-28T18:47:45.300Z,97264.53
2022-09-28T18:50:18.084Z,97268.13
2022-09-28T18:52:44.972Z,97277.06
2022-09-28T18:55:11.951Z,97278.81
2022-09-28T18:57:40.341Z,97280.81
2022-09-28T19:00:08.840Z,97287.88
2022-09-28T19:02:35.864Z,97292.50
2022-09-28T19:05:02.368Z,97295.31
2022-09-28T19:07:28.772Z,97290.97
2022-09-28T19:09:57.493Z,97292.97
2022-09-28T19:12:23.947Z,97290.44
2022-09-28T19:14:50.300Z,97295.84
2022-09-28T19:17:18.057Z,97295.78
2022-09-28T19:19:44.953Z,97294.88
2022-09-28T19:22:11.969Z,97293.97
2022-09-28T19:24:38.626Z,97294.66
2022-09-28T19:27:05.038Z,97302.28
2022-09-28T19:29:31.436Z,97300.56
2022-09-28T19:31:58.113Z,97301.28
2022-09-28T19:34:26.944Z,97305.19
2022-09-28T19:36:53.331Z,97305.19
2022-09-28T19:39:19.818Z,97310.72
2022-09-28T19:41:52.947Z,97308.28
2022-09-28T19:44:27.264Z,97315.09
2022-09-28T19:46:54.635Z,97311.31
2022-09-28T19:49:22.408Z,97310.97
2022-09-28T19:54:38.014Z,97320.88
2022-09-28T19:57:08.479Z,97326.38
2022-09-28T19:59:36.498Z,97331.13
2022-09-28T20:02:03.107Z,97335.81
2022-09-28T20:04:30.008Z,97331.56
2022-09-28T20:06:56.412Z,97331.03
2022-09-28T20:09:22.818Z,97334.69
2022-09-28T20:11:51.242Z,97335.47
2022-09-28T20:14:18.608Z,97339.16
2022-09-28T20:16:46.127Z,97331.47
2022-09-28T20:19:12.898Z,97334.13
2022-09-28T20:21:39.299Z,97335.97
2022-09-28T20:24:05.843Z,97336.16
2022-09-28T20:26:37.819Z,97335.38
2022-09-28T20:29:04.971Z,97339.31
2022-09-28T20:31:31.451Z,97336.31
2022-09-28T20:33:57.915Z,97344.59
2022-09-28T20:36:25.141Z,97341.81
2022-09-28T20:38:52.457Z,97354.47
2022-09-28T20:41:19.805Z,97359.97
2022-09-28T20:43:46.733Z,97343.28
2022-09-28T20:46:13.890Z,97354.09
2022-09-28T20:48:40.613Z,97348.03
2022-09-28T20:51:14.142Z,97352.25
2022-09-28T20:53:42.922Z,97342.28
2022-09-28T20:56:14.039Z,97339.63
2022-09-28T20:58:40.706Z,97346.78
2022-09-28T21:01:09.629Z,97344.34
2022-09-28T21:03:37.048Z,97353.31
2022-09-28T21:06:07.589Z,97350.06
2022-09-28T21:08:36.660Z,97361.47
2022-09-28T21:11:03.041Z,97348.47
2022-09-28T21:13:29.579Z,97357.44
2022-09-28T21:16:00.699Z,97352.16
2022-09-28T21:18:27.498Z,97348.03
2022-09-28T21:20:55.112Z,97352.84
2022-09-28T21:23:24.713Z,97348.13
2022-09-28T21:26:00.388Z,97339.75
2022-09-28T21:28:26.876Z,97340.09
2022-09-28T21:30:53.399Z,97340.66
2022-09-28T21:33:19.824Z,97348.59
2022-09-28T21:35:46.286Z,97340.66
2022-09-28T21:38:12.723Z,97340.09
2022-09-28T21:40:39.212Z,97342.75
2022-09-28T21:43:05.637Z,97340.09
2022-09-28T21:45:32.466Z,97338.00
2022-09-28T21:47:59.089Z,97335.16
2022-09-28T21:50:26.051Z,97337.56
2022-09-28T21:52:53.481Z,97338.94
2022-09-28T21:55:20.592Z,97325.94
2022-09-28T21:57:47.563Z,97336.16
2022-09-28T22:00:18.468Z,97342.16
2022-09-28T22:02:45.405Z,97335.16
2022-09-28T22:05:12.617Z,97340.78
2022-09-28T22:07:39.893Z,97338.22
2022-09-28T22:10:07.013Z,97341.22
2022-09-28T22:12:33.397Z,97345.22
2022-09-28T22:15:00.279Z,97348.19
2022-09-28T22:17:26.708Z,97345.09
2022-09-28T22:19:53.359Z,97349.06
2022-09-28T22:22:19.827Z,97346.94
2022-09-28T22:24:46.242Z,97351.50
2022-09-28T22:27:12.887Z,97355.28
2022-09-28T22:29:39.339Z,97349.47
2022-09-28T22:32:07.441Z,97350.75
2022-09-28T22:34:34.106Z,97354.19
2022-09-28T22:37:03.122Z,97350.53
2022-09-28T22:39:34.234Z,97343.63
2022-09-28T22:42:03.177Z,97342.25
2022-09-28T22:44:29.632Z,97335.59
2022-09-28T22:46:56.103Z,97344.19
2022-09-28T22:49:22.757Z,97344.63
2022-09-28T22:51:49.290Z,97342.53
2022-09-28T22:54:16.389Z,97342.34
2022-09-28T22:56:43.535Z,97345.53
2022-09-28T22:59:11.397Z,97348.56
2022-09-28T23:01:38.098Z,97340.63
2022-09-28T23:04:04.626Z,97342.84
2022-09-28T23:06:31.107Z,97338.13
2022-09-28T23:08:57.671Z,97339.75
2022-09-28T23:11:24.147Z,97339.09
2022-09-28T23:13:55.410Z,97335.03
2022-09-28T23:16:24.762Z,97335.03
2022-09-28T23:18:52.272Z,97337.91
2022-09-28T23:21:21.328Z,97336.28
2022-09-28T23:23:52.307Z,97352.59
2022-09-28T23:26:19.962Z,97348.78
2022-09-28T23:28:46.585Z,97342.53
2022-09-28T23:31:15.363Z,97348.28
2022-09-28T23:33:41.917Z,97348.94
2022-09-28T23:36:08.454Z,97342.94
2022-09-28T23:38:35.181Z,97345.44
2022-09-28T23:41:01.709Z,97339.81
2022-09-28T23:43:28.249Z,97337.81
2022-09-28T23:45:54.664Z,97334.84
2022-09-28T23:48:21.049Z,97343.19
2022-09-28T23:50:47.595Z,97346.47
2022-09-28T23:53:14.664Z,97344.03
2022-09-28T23:55:44.137Z,97348.16
2022-09-28T23:58:11.078Z,97343.34
